sensor_id;sensor_type;location;lat;lon;timestamp;temperature;humidity
24250;DHT22;12379;49.820;8.648;2023-07-31T00:00:40;19.50;99.90
24250;DHT22;12379;49.820;8.648;2023-07-31T00:03:06;19.40;99.90
24250;DHT22;12379;49.820;8.648;2023-07-31T00:05:31;19.20;99.90
24250;DHT22;12379;49.820;8.648;2023-07-31T00:07:57;19.20;99.90
24250;DHT22;12379;49.820;8.648;2023-07-31T00:10:22;19.20;99.90
24250;DHT22;12379;49.820;8.648;2023-07-31T00:12:48;19.20;99.90
24250;DHT22;12379;49.820;8.648;2023-07-31T00:15:14;19.20;99.90
24250;DHT22;12379;49.820;8.648;2023-07-31T00:17:40;19.20;99.90
24250;DHT22;12379;49.820;8.648;2023-07-31T00:20:06;19.20;99.90
24250;DHT22;12379;49.820;8.648;2023-07-31T00:22:32;19.20;99.90
24250;DHT22;12379;49.820;8.648;2023-07-31T00:24:57;19.20;99.90
24250;DHT22;12379;49.820;8.648;2023-07-31T00:27:25;19.10;99.90
24250;DHT22;12379;49.820;8.648;2023-07-31T00:29:50;19.10;99.90
24250;DHT22;12379;49.820;8.648;2023-07-31T00:32:16;19.10;99.90
24250;DHT22;12379;49.820;8.648;2023-07-31T00:34:41;19.20;99.90
24250;DHT22;12379;49.820;8.648;2023-07-31T00:37:07;19.30;99.90
24250;DHT22;12379;49.820;8.648;2023-07-31T00:39:34;19.20;99.90
24250;DHT22;12379;49.820;8.648;2023-07-31T00:41:59;19.30;99.90
24250;DHT22;12379;49.820;8.648;2023-07-31T00:44:25;19.20;99.90
24250;DHT22;12379;49.820;8.648;2023-07-31T00:46:51;19.30;99.90
24250;DHT22;12379;49.820;8.648;2023-07-31T00:49:17;19.20;99.90
24250;DHT22;12379;49.820;8.648;2023-07-31T00:51:43;19.20;99.90
24250;DHT22;12379;49.820;8.648;2023-07-31T00:54:09;19.30;99.90
24250;DHT22;12379;49.820;8.648;2023-07-31T00:56:34;19.30;99.90
24250;DHT22;12379;49.820;8.648;2023-07-31T00:59:00;19.30;99.90
24250;DHT22;12379;49.820;8.648;2023-07-31T01:01:25;19.40;99.90
24250;DHT22;12379;49.820;8.648;2023-07-31T01:03:52;19.40;99.90
24250;DHT22;12379;49.820;8.648;2023-07-31T01:12:04;19.30;99.90
24250;DHT22;12379;49.820;8.648;2023-07-31T01:14:32;19.40;99.90
24250;DHT22;12379;49.820;8.648;2023-07-31T01:16:57;19.40;99.90
24250;DHT22;12379;49.820;8.648;2023-07-31T01:19:24;19.50;99.90
24250;DHT22;12379;49.820;8.648;2023-07-31T01:22:13;19.40;99.90
24250;DHT22;12379;49.820;8.648;2023-07-31T01:27:16;19.30;99.90
24250;DHT22;12379;49.820;8.648;2023-07-31T01:30:19;19.30;99.90
24250;DHT22;12379;49.820;8.648;2023-07-31T01:32:48;19.30;99.90
24250;DHT22;12379;49.820;8.648;2023-07-31T01:35:15;19.40;99.90
24250;DHT22;12379;49.820;8.648;2023-07-31T01:37:40;19.30;99.90
24250;DHT22;12379;49.820;8.648;2023-07-31T01:40:06;19.40;99.90
24250;DHT22;12379;49.820;8.648;2023-07-31T01:42:32;19.40;99.90
24250;DHT22;12379;49.820;8.648;2023-07-31T01:44:58;19.30;99.90
24250;DHT22;12379;49.820;8.648;2023-07-31T01:47:23;19.20;99.90
24250;DHT22;12379;49.820;8.648;2023-07-31T01:49:49;19.20;99.90
24250;DHT22;12379;49.820;8.648;2023-07-31T01:52:14;19.30;99.90
24250;DHT22;12379;49.820;8.648;2023-07-31T01:54:40;19.30;99.90
24250;DHT22;12379;49.820;8.648;2023-07-31T01:57:06;19.30;99.90
24250;DHT22;12379;49.820;8.648;2023-07-31T01:59:31;19.30;99.90
24250;DHT22;12379;49.820;8.648;2023-07-31T02:01:57;19.30;99.90
24250;DHT22;12379;49.820;8.648;2023-07-31T02:04:22;19.30;99.90
24250;DHT22;12379;49.820;8.648;2023-07-31T02:06:48;19.10;99.90
24250;DHT22;12379;49.820;8.648;2023-07-31T02:09:13;19.20;99.90
24250;DHT22;12379;49.820;8.648;2023-07-31T02:11:39;19.20;99.90
24250;DHT22;12379;49.820;8.648;2023-07-31T02:14:04;19.20;99.90
24250;DHT22;12379;49.820;8.648;2023-07-31T02:16:30;19.30;99.90
24250;DHT22;12379;49.820;8.648;2023-07-31T02:18:55;19.30;99.90
24250;DHT22;12379;49.820;8.648;2023-07-31T02:21:21;19.10;99.90
24250;DHT22;12379;49.820;8.648;2023-07-31T02:23:46;19.10;99.90
24250;DHT22;12379;49.820;8.648;2023-07-31T02:26:12;19.10;99.90
24250;DHT22;12379;49.820;8.648;2023-07-31T02:28:37;19.20;99.90
24250;DHT22;12379;49.820;8.648;2023-07-31T02:31:03;19.10;99.90
24250;DHT22;12379;49.820;8.648;2023-07-31T02:33:28;19.10;99.90
24250;DHT22;12379;49.820;8.648;2023-07-31T02:35:54;19.00;99.90
24250;DHT22;12379;49.820;8.648;2023-07-31T02:38:19;18.90;99.90
24250;DHT22;12379;49.820;8.648;2023-07-31T02:40:45;18.90;99.90
24250;DHT22;12379;49.820;8.648;2023-07-31T02:43:11;19.00;99.90
24250;DHT22;12379;49.820;8.648;2023-07-31T02:45:36;19.00;99.90
24250;DHT22;12379;49.820;8.648;2023-07-31T02:48:02;18.90;99.90
24250;DHT22;12379;49.820;8.648;2023-07-31T02:50:27;18.90;99.90
24250;DHT22;12379;49.820;8.648;2023-07-31T02:52:54;18.90;99.90
24250;DHT22;12379;49.820;8.648;2023-07-31T02:55:19;18.90;99.90
24250;DHT22;12379;49.820;8.648;2023-07-31T02:57:45;18.80;99.90
24250;DHT22;12379;49.820;8.648;2023-07-31T03:00:10;18.90;99.90
24250;DHT22;12379;49.820;8.648;2023-07-31T03:02:36;18.90;99.90
24250;DHT22;12379;49.820;8.648;2023-07-31T03:05:01;18.80;99.90
24250;DHT22;12379;49.820;8.648;2023-07-31T03:07:27;18.80;99.90
24250;DHT22;12379;49.820;8.648;2023-07-31T03:09:53;18.70;99.90
24250;DHT22;12379;49.820;8.648;2023-07-31T03:12:19;18.70;99.90
24250;DHT22;12379;49.820;8.648;2023-07-31T03:14:45;18.80;99.90
24250;DHT22;12379;49.820;8.648;2023-07-31T03:17:10;18.80;99.90
24250;DHT22;12379;49.820;8.648;2023-07-31T03:19:36;18.80;99.90
24250;DHT22;12379;49.820;8.648;2023-07-31T03:22:01;18.90;99.90
24250;DHT22;12379;49.820;8.648;2023-07-31T03:24:28;18.80;99.90
24250;DHT22;12379;49.820;8.648;2023-07-31T03:26:54;18.80;99.90
24250;DHT22;12379;49.820;8.648;2023-07-31T03:29:20;18.80;99.90
24250;DHT22;12379;49.820;8.648;2023-07-31T03:31:45;18.80;99.90
24250;DHT22;12379;49.820;8.648;2023-07-31T03:34:11;18.70;99.90
24250;DHT22;12379;49.820;8.648;2023-07-31T03:36:36;18.70;99.90
24250;DHT22;12379;49.820;8.648;2023-07-31T03:39:02;18.60;99.90
24250;DHT22;12379;49.820;8.648;2023-07-31T03:41:28;18.50;99.90
24250;DHT22;12379;49.820;8.648;2023-07-31T03:43:54;18.40;99.90
24250;DHT22;12379;49.820;8.648;2023-07-31T03:46:23;18.40;99.90
24250;DHT22;12379;49.820;8.648;2023-07-31T03:48:49;18.60;99.90
24250;DHT22;12379;49.820;8.648;2023-07-31T03:51:14;18.50;99.90
24250;DHT22;12379;49.820;8.648;2023-07-31T03:53:40;18.40;99.90
24250;DHT22;12379;49.820;8.648;2023-07-31T03:56:05;18.30;99.90
24250;DHT22;12379;49.820;8.648;2023-07-31T03:58:31;18.20;99.90
24250;DHT22;12379;49.820;8.648;2023-07-31T04:00:57;18.20;99.90
24250;DHT22;12379;49.820;8.648;2023-07-31T04:03:22;18.20;99.90
24250;DHT22;12379;49.820;8.648;2023-07-31T04:05:48;18.20;99.90
24250;DHT22;12379;49.820;8.648;2023-07-31T04:08:13;18.20;99.90
24250;DHT22;12379;49.820;8.648;2023-07-31T04:10:39;18.20;99.90
24250;DHT22;12379;49.820;8.648;2023-07-31T04:13:04;18.20;99.90
24250;DHT22;12379;49.820;8.648;2023-07-31T04:15:30;18.20;99.90
24250;DHT22;12379;49.820;8.648;2023-07-31T04:17:55;18.20;99.90
24250;DHT22;12379;49.820;8.648;2023-07-31T04:20:21;18.20;99.90
24250;DHT22;12379;49.820;8.648;2023-07-31T04:22:46;18.20;99.90
24250;DHT22;12379;49.820;8.648;2023-07-31T04:25:12;18.20;99.90
24250;DHT22;12379;49.820;8.648;2023-07-31T04:27:37;18.20;99.90
24250;DHT22;12379;49.820;8.648;2023-07-31T04:30:03;18.30;99.90
24250;DHT22;12379;49.820;8.648;2023-07-31T04:32:29;18.30;99.90
24250;DHT22;12379;49.820;8.648;2023-07-31T04:34:55;18.30;99.90
24250;DHT22;12379;49.820;8.648;2023-07-31T04:37:20;18.20;99.90
24250;DHT22;12379;49.820;8.648;2023-07-31T04:39:46;18.20;99.90
24250;DHT22;12379;49.820;8.648;2023-07-31T04:42:12;18.20;99.90
24250;DHT22;12379;49.820;8.648;2023-07-31T04:44:37;18.20;99.90
24250;DHT22;12379;49.820;8.648;2023-07-31T04:47:03;18.20;99.90
24250;DHT22;12379;49.820;8.648;2023-07-31T04:49:28;18.30;99.90
24250;DHT22;12379;49.820;8.648;2023-07-31T04:51:54;18.30;99.90
24250;DHT22;12379;49.820;8.648;2023-07-31T04:54:19;18.30;99.90
24250;DHT22;12379;49.820;8.648;2023-07-31T04:56:45;18.20;99.90
24250;DHT22;12379;49.820;8.648;2023-07-31T04:59:10;18.20;99.90
24250;DHT22;12379;49.820;8.648;2023-07-31T05:01:36;18.30;99.90
24250;DHT22;12379;49.820;8.648;2023-07-31T05:04:01;18.30;99.90
24250;DHT22;12379;49.820;8.648;2023-07-31T05:06:27;18.40;99.90
24250;DHT22;12379;49.820;8.648;2023-07-31T05:08:53;18.40;99.90
24250;DHT22;12379;49.820;8.648;2023-07-31T05:11:18;18.50;99.90
24250;DHT22;12379;49.820;8.648;2023-07-31T05:13:44;18.50;99.90
24250;DHT22;12379;49.820;8.648;2023-07-31T05:16:09;18.40;99.90
24250;DHT22;12379;49.820;8.648;2023-07-31T05:18:35;18.60;99.90
24250;DHT22;12379;49.820;8.648;2023-07-31T05:21:00;18.60;99.90
24250;DHT22;12379;49.820;8.648;2023-07-31T05:23:26;18.60;99.90
24250;DHT22;12379;49.820;8.648;2023-07-31T05:25:51;18.70;99.90
24250;DHT22;12379;49.820;8.648;2023-07-31T05:28:17;18.70;99.90
24250;DHT22;12379;49.820;8.648;2023-07-31T05:30:42;18.70;99.90
24250;DHT22;12379;49.820;8.648;2023-07-31T05:33:08;18.70;99.90
24250;DHT22;12379;49.820;8.648;2023-07-31T05:35:33;18.90;99.90
24250;DHT22;12379;49.820;8.648;2023-07-31T05:37:59;18.90;99.90
24250;DHT22;12379;49.820;8.648;2023-07-31T05:40:24;19.00;99.90
24250;DHT22;12379;49.820;8.648;2023-07-31T05:42:50;19.00;99.90
24250;DHT22;12379;49.820;8.648;2023-07-31T05:45:15;18.90;99.90
24250;DHT22;12379;49.820;8.648;2023-07-31T05:47:41;19.00;99.90
24250;DHT22;12379;49.820;8.648;2023-07-31T05:50:08;19.00;99.90
24250;DHT22;12379;49.820;8.648;2023-07-31T05:52:33;18.90;99.90
24250;DHT22;12379;49.820;8.648;2023-07-31T05:54:59;19.00;99.90
24250;DHT22;12379;49.820;8.648;2023-07-31T05:57:24;18.90;99.90
24250;DHT22;12379;49.820;8.648;2023-07-31T05:59:50;19.00;99.90
24250;DHT22;12379;49.820;8.648;2023-07-31T06:02:15;19.00;99.90
24250;DHT22;12379;49.820;8.648;2023-07-31T06:04:41;19.10;99.90
24250;DHT22;12379;49.820;8.648;2023-07-31T06:07:06;19.00;99.90
24250;DHT22;12379;49.820;8.648;2023-07-31T06:09:32;18.80;99.90
24250;DHT22;12379;49.820;8.648;2023-07-31T06:11:57;18.80;99.90
24250;DHT22;12379;49.820;8.648;2023-07-31T06:14:23;18.90;99.90
24250;DHT22;12379;49.820;8.648;2023-07-31T06:16:48;19.10;99.90
24250;DHT22;12379;49.820;8.648;2023-07-31T06:19:14;19.20;99.90
24250;DHT22;12379;49.820;8.648;2023-07-31T06:21:40;19.50;99.90
24250;DHT22;12379;49.820;8.648;2023-07-31T06:24:07;19.80;99.90
24250;DHT22;12379;49.820;8.648;2023-07-31T06:26:33;20.20;99.90
24250;DHT22;12379;49.820;8.648;2023-07-31T06:28:58;20.30;99.90
24250;DHT22;12379;49.820;8.648;2023-07-31T06:31:24;20.40;99.90
24250;DHT22;12379;49.820;8.648;2023-07-31T06:33:51;20.70;99.90
24250;DHT22;12379;49.820;8.648;2023-07-31T06:36:16;20.80;99.90
24250;DHT22;12379;49.820;8.648;2023-07-31T06:38:42;21.20;99.90
24250;DHT22;12379;49.820;8.648;2023-07-31T06:41:07;21.90;99.90
24250;DHT22;12379;49.820;8.648;2023-07-31T06:43:33;22.40;99.90
24250;DHT22;12379;49.820;8.648;2023-07-31T06:46:09;22.50;99.90
24250;DHT22;12379;49.820;8.648;2023-07-31T06:48:35;22.00;99.90
24250;DHT22;12379;49.820;8.648;2023-07-31T06:51:02;21.80;99.90
24250;DHT22;12379;49.820;8.648;2023-07-31T06:53:28;21.40;99.90
24250;DHT22;12379;49.820;8.648;2023-07-31T06:55:54;21.20;99.90
24250;DHT22;12379;49.820;8.648;2023-07-31T06:58:20;21.30;99.90
24250;DHT22;12379;49.820;8.648;2023-07-31T07:00:45;21.30;99.90
24250;DHT22;12379;49.820;8.648;2023-07-31T07:03:11;21.10;99.90
24250;DHT22;12379;49.820;8.648;2023-07-31T07:05:36;21.10;99.90
24250;DHT22;12379;49.820;8.648;2023-07-31T07:08:02;21.40;99.90
24250;DHT22;12379;49.820;8.648;2023-07-31T07:10:28;22.00;99.90
24250;DHT22;12379;49.820;8.648;2023-07-31T07:12:54;22.40;99.90
24250;DHT22;12379;49.820;8.648;2023-07-31T07:15:20;23.20;99.90
24250;DHT22;12379;49.820;8.648;2023-07-31T07:17:46;24.30;98.40
24250;DHT22;12379;49.820;8.648;2023-07-31T07:20:12;24.30;97.90
24250;DHT22;12379;49.820;8.648;2023-07-31T07:22:37;24.80;97.20
24250;DHT22;12379;49.820;8.648;2023-07-31T07:25:04;24.80;95.90
24250;DHT22;12379;49.820;8.648;2023-07-31T07:27:30;24.50;95.50
24250;DHT22;12379;49.820;8.648;2023-07-31T07:29:55;23.50;97.50
24250;DHT22;12379;49.820;8.648;2023-07-31T07:32:21;22.70;99.70
24250;DHT22;12379;49.820;8.648;2023-07-31T07:34:48;22.20;99.90
24250;DHT22;12379;49.820;8.648;2023-07-31T07:37:14;22.00;99.90
24250;DHT22;12379;49.820;8.648;2023-07-31T07:39:39;21.40;99.90
24250;DHT22;12379;49.820;8.648;2023-07-31T07:42:05;21.20;99.90
24250;DHT22;12379;49.820;8.648;2023-07-31T07:44:30;21.10;99.90
24250;DHT22;12379;49.820;8.648;2023-07-31T07:46:56;21.20;99.90
24250;DHT22;12379;49.820;8.648;2023-07-31T07:49:21;21.10;99.90
24250;DHT22;12379;49.820;8.648;2023-07-31T07:51:48;21.00;99.90
24250;DHT22;12379;49.820;8.648;2023-07-31T07:54:14;21.00;99.90
24250;DHT22;12379;49.820;8.648;2023-07-31T07:56:42;21.10;99.90
24250;DHT22;12379;49.820;8.648;2023-07-31T07:59:07;21.20;99.90
24250;DHT22;12379;49.820;8.648;2023-07-31T08:01:33;21.10;99.90
24250;DHT22;12379;49.820;8.648;2023-07-31T08:03:58;21.10;99.90
24250;DHT22;12379;49.820;8.648;2023-07-31T08:06:24;21.50;99.90
24250;DHT22;12379;49.820;8.648;2023-07-31T08:08:50;22.30;99.90
24250;DHT22;12379;49.820;8.648;2023-07-31T08:11:15;23.40;99.90
24250;DHT22;12379;49.820;8.648;2023-07-31T08:13:41;24.00;99.80
24250;DHT22;12379;49.820;8.648;2023-07-31T08:16:06;24.20;99.90
24250;DHT22;12379;49.820;8.648;2023-07-31T08:18:33;24.60;97.70
24250;DHT22;12379;49.820;8.648;2023-07-31T08:20:59;24.10;98.40
24250;DHT22;12379;49.820;8.648;2023-07-31T08:23:24;23.80;99.40
24250;DHT22;12379;49.820;8.648;2023-07-31T08:25:50;23.50;99.90
24250;DHT22;12379;49.820;8.648;2023-07-31T08:28:16;23.40;99.90
24250;DHT22;12379;49.820;8.648;2023-07-31T08:30:42;23.00;99.90
24250;DHT22;12379;49.820;8.648;2023-07-31T08:33:08;23.00;99.90
24250;DHT22;12379;49.820;8.648;2023-07-31T08:35:33;23.10;99.90
24250;DHT22;12379;49.820;8.648;2023-07-31T08:37:59;24.00;99.90
24250;DHT22;12379;49.820;8.648;2023-07-31T08:40:25;24.10;98.40
24250;DHT22;12379;49.820;8.648;2023-07-31T08:42:55;24.30;99.10
24250;DHT22;12379;49.820;8.648;2023-07-31T08:45:22;24.20;98.10
24250;DHT22;12379;49.820;8.648;2023-07-31T08:47:49;23.90;99.80
24250;DHT22;12379;49.820;8.648;2023-07-31T08:50:17;24.10;99.20
24250;DHT22;12379;49.820;8.648;2023-07-31T08:52:43;23.90;98.90
24250;DHT22;12379;49.820;8.648;2023-07-31T08:55:09;23.60;99.70
24250;DHT22;12379;49.820;8.648;2023-07-31T08:57:37;23.20;99.90
24250;DHT22;12379;49.820;8.648;2023-07-31T09:00:04;22.80;99.90
24250;DHT22;12379;49.820;8.648;2023-07-31T09:03:03;22.60;99.90
24250;DHT22;12379;49.820;8.648;2023-07-31T09:05:32;22.70;99.90
24250;DHT22;12379;49.820;8.648;2023-07-31T09:07:58;23.00;99.90
24250;DHT22;12379;49.820;8.648;2023-07-31T09:10:25;23.10;99.90
24250;DHT22;12379;49.820;8.648;2023-07-31T09:12:52;22.90;99.90
24250;DHT22;12379;49.820;8.648;2023-07-31T09:15:18;22.90;99.90
24250;DHT22;12379;49.820;8.648;2023-07-31T09:17:44;22.90;99.90
24250;DHT22;12379;49.820;8.648;2023-07-31T09:22:42;22.80;99.90
24250;DHT22;12379;49.820;8.648;2023-07-31T09:25:22;22.90;99.90
24250;DHT22;12379;49.820;8.648;2023-07-31T09:28:08;22.90;99.90
24250;DHT22;12379;49.820;8.648;2023-07-31T09:30:50;22.90;99.90
24250;DHT22;12379;49.820;8.648;2023-07-31T09:33:17;22.90;99.90
24250;DHT22;12379;49.820;8.648;2023-07-31T09:35:52;23.00;99.90
24250;DHT22;12379;49.820;8.648;2023-07-31T09:38:18;23.00;99.90
24250;DHT22;12379;49.820;8.648;2023-07-31T09:40:48;23.00;99.90
24250;DHT22;12379;49.820;8.648;2023-07-31T09:43:20;23.10;99.90
24250;DHT22;12379;49.820;8.648;2023-07-31T09:45:55;23.30;99.90
24250;DHT22;12379;49.820;8.648;2023-07-31T09:48:23;23.60;99.90
24250;DHT22;12379;49.820;8.648;2023-07-31T09:50:51;23.50;99.90
24250;DHT22;12379;49.820;8.648;2023-07-31T09:53:16;23.30;99.90
24250;DHT22;12379;49.820;8.648;2023-07-31T09:55:42;23.00;99.90
24250;DHT22;12379;49.820;8.648;2023-07-31T09:58:12;23.00;99.90
24250;DHT22;12379;49.820;8.648;2023-07-31T10:00:39;22.90;99.90
24250;DHT22;12379;49.820;8.648;2023-07-31T10:03:10;22.70;99.90
24250;DHT22;12379;49.820;8.648;2023-07-31T10:05:40;22.60;99.90
24250;DHT22;12379;49.820;8.648;2023-07-31T10:08:09;22.80;99.90
24250;DHT22;12379;49.820;8.648;2023-07-31T10:10:42;23.30;99.90
24250;DHT22;12379;49.820;8.648;2023-07-31T10:13:08;23.60;99.90
24250;DHT22;12379;49.820;8.648;2023-07-31T10:15:34;23.80;99.90
24250;DHT22;12379;49.820;8.648;2023-07-31T10:18:01;23.80;99.90
24250;DHT22;12379;49.820;8.648;2023-07-31T10:20:28;23.80;99.90
24250;DHT22;12379;49.820;8.648;2023-07-31T10:22:55;24.30;99.30
24250;DHT22;12379;49.820;8.648;2023-07-31T10:25:22;24.70;98.20
24250;DHT22;12379;49.820;8.648;2023-07-31T10:27:47;24.80;97.40
24250;DHT22;12379;49.820;8.648;2023-07-31T10:30:16;24.50;97.90
24250;DHT22;12379;49.820;8.648;2023-07-31T10:32:43;24.60;98.30
24250;DHT22;12379;49.820;8.648;2023-07-31T10:35:09;24.60;97.40
24250;DHT22;12379;49.820;8.648;2023-07-31T10:37:39;24.80;97.60
24250;DHT22;12379;49.820;8.648;2023-07-31T10:40:10;24.80;97.10
24250;DHT22;12379;49.820;8.648;2023-07-31T10:42:59;24.70;97.30
24250;DHT22;12379;49.820;8.648;2023-07-31T10:48:06;24.60;97.50
24250;DHT22;12379;49.820;8.648;2023-07-31T10:50:38;24.30;98.00
24250;DHT22;12379;49.820;8.648;2023-07-31T10:53:04;24.20;98.90
24250;DHT22;12379;49.820;8.648;2023-07-31T10:55:38;24.20;97.80
24250;DHT22;12379;49.820;8.648;2023-07-31T10:58:08;24.20;97.20
24250;DHT22;12379;49.820;8.648;2023-07-31T11:00:34;24.50;96.00
24250;DHT22;12379;49.820;8.648;2023-07-31T11:03:07;24.70;95.30
24250;DHT22;12379;49.820;8.648;2023-07-31T11:05:50;24.90;94.50
24250;DHT22;12379;49.820;8.648;2023-07-31T11:08:27;25.00;95.30
24250;DHT22;12379;49.820;8.648;2023-07-31T11:13:41;24.80;94.90
24250;DHT22;12379;49.820;8.648;2023-07-31T11:16:08;24.40;95.50
24250;DHT22;12379;49.820;8.648;2023-07-31T11:18:34;24.10;96.10
24250;DHT22;12379;49.820;8.648;2023-07-31T11:21:00;24.00;96.60
24250;DHT22;12379;49.820;8.648;2023-07-31T11:23:25;23.70;96.60
24250;DHT22;12379;49.820;8.648;2023-07-31T11:25:51;23.60;96.90
24250;DHT22;12379;49.820;8.648;2023-07-31T11:28:18;23.40;97.20
24250;DHT22;12379;49.820;8.648;2023-07-31T11:30:45;23.30;97.90
24250;DHT22;12379;49.820;8.648;2023-07-31T11:33:12;23.10;99.90
24250;DHT22;12379;49.820;8.648;2023-07-31T11:35:48;23.00;99.90
24250;DHT22;12379;49.820;8.648;2023-07-31T11:38:31;23.00;99.90
24250;DHT22;12379;49.820;8.648;2023-07-31T11:41:02;22.90;99.90
24250;DHT22;12379;49.820;8.648;2023-07-31T11:43:28;23.00;99.90
24250;DHT22;12379;49.820;8.648;2023-07-31T11:46:01;23.00;99.90
24250;DHT22;12379;49.820;8.648;2023-07-31T11:48:32;23.10;99.90
24250;DHT22;12379;49.820;8.648;2023-07-31T11:51:01;23.10;99.90
24250;DHT22;12379;49.820;8.648;2023-07-31T11:53:35;23.30;99.90
24250;DHT22;12379;49.820;8.648;2023-07-31T11:56:02;23.30;99.90
24250;DHT22;12379;49.820;8.648;2023-07-31T11:58:31;23.40;99.90
24250;DHT22;12379;49.820;8.648;2023-07-31T12:00:58;23.40;99.90
24250;DHT22;12379;49.820;8.648;2023-07-31T12:03:23;23.40;99.90
24250;DHT22;12379;49.820;8.648;2023-07-31T12:05:49;23.20;99.90
24250;DHT22;12379;49.820;8.648;2023-07-31T12:08:15;23.20;99.90
24250;DHT22;12379;49.820;8.648;2023-07-31T12:10:41;23.30;99.90
24250;DHT22;12379;49.820;8.648;2023-07-31T12:13:19;23.30;99.90
24250;DHT22;12379;49.820;8.648;2023-07-31T12:15:46;23.30;99.90
24250;DHT22;12379;49.820;8.648;2023-07-31T12:18:13;23.20;99.90
24250;DHT22;12379;49.820;8.648;2023-07-31T12:20:53;23.30;99.90
24250;DHT22;12379;49.820;8.648;2023-07-31T12:23:21;23.30;99.90
24250;DHT22;12379;49.820;8.648;2023-07-31T12:31:22;23.10;99.90
24250;DHT22;12379;49.820;8.648;2023-07-31T12:33:49;23.10;99.90
24250;DHT22;12379;49.820;8.648;2023-07-31T12:36:17;23.00;99.90
24250;DHT22;12379;49.820;8.648;2023-07-31T12:38:43;23.00;99.90
24250;DHT22;12379;49.820;8.648;2023-07-31T12:41:09;22.80;99.90
24250;DHT22;12379;49.820;8.648;2023-07-31T12:43:36;22.70;99.90
24250;DHT22;12379;49.820;8.648;2023-07-31T12:46:03;22.70;99.90
24250;DHT22;12379;49.820;8.648;2023-07-31T12:48:29;22.70;99.90
24250;DHT22;12379;49.820;8.648;2023-07-31T12:50:55;22.80;99.90
24250;DHT22;12379;49.820;8.648;2023-07-31T12:53:20;22.80;99.90
24250;DHT22;12379;49.820;8.648;2023-07-31T12:55:46;22.70;99.90
24250;DHT22;12379;49.820;8.648;2023-07-31T12:58:12;22.80;99.90
24250;DHT22;12379;49.820;8.648;2023-07-31T13:00:38;22.80;99.90
24250;DHT22;12379;49.820;8.648;2023-07-31T13:03:03;22.70;99.90
24250;DHT22;12379;49.820;8.648;2023-07-31T13:05:29;22.70;99.90
24250;DHT22;12379;49.820;8.648;2023-07-31T13:07:54;22.70;99.90
24250;DHT22;12379;49.820;8.648;2023-07-31T13:10:21;22.70;99.90
24250;DHT22;12379;49.820;8.648;2023-07-31T13:12:47;23.00;99.90
24250;DHT22;12379;49.820;8.648;2023-07-31T13:15:13;23.20;99.90
24250;DHT22;12379;49.820;8.648;2023-07-31T13:17:39;23.50;99.90
24250;DHT22;12379;49.820;8.648;2023-07-31T13:20:05;23.80;99.90
24250;DHT22;12379;49.820;8.648;2023-07-31T13:22:31;23.80;99.90
24250;DHT22;12379;49.820;8.648;2023-07-31T13:24:57;23.70;99.90
24250;DHT22;12379;49.820;8.648;2023-07-31T13:27:22;23.80;99.90
24250;DHT22;12379;49.820;8.648;2023-07-31T13:29:49;23.90;99.90
24250;DHT22;12379;49.820;8.648;2023-07-31T13:32:16;24.00;99.90
24250;DHT22;12379;49.820;8.648;2023-07-31T13:34:42;24.00;99.70
24250;DHT22;12379;49.820;8.648;2023-07-31T13:37:08;23.90;99.90
24250;DHT22;12379;49.820;8.648;2023-07-31T13:39:33;23.70;99.90
24250;DHT22;12379;49.820;8.648;2023-07-31T13:41:59;23.60;99.90
24250;DHT22;12379;49.820;8.648;2023-07-31T13:44:25;23.50;99.90
24250;DHT22;12379;49.820;8.648;2023-07-31T13:46:51;23.40;99.90
24250;DHT22;12379;49.820;8.648;2023-07-31T13:49:17;23.20;99.90
24250;DHT22;12379;49.820;8.648;2023-07-31T13:51:42;23.20;99.90
24250;DHT22;12379;49.820;8.648;2023-07-31T13:54:08;23.10;99.90
24250;DHT22;12379;49.820;8.648;2023-07-31T13:56:34;23.00;99.90
24250;DHT22;12379;49.820;8.648;2023-07-31T13:58:59;23.00;99.90
24250;DHT22;12379;49.820;8.648;2023-07-31T14:01:26;23.00;99.90
24250;DHT22;12379;49.820;8.648;2023-07-31T14:03:52;23.00;99.90
24250;DHT22;12379;49.820;8.648;2023-07-31T14:06:17;22.90;99.90
24250;DHT22;12379;49.820;8.648;2023-07-31T14:08:43;22.90;99.90
24250;DHT22;12379;49.820;8.648;2023-07-31T14:11:08;22.90;99.90
24250;DHT22;12379;49.820;8.648;2023-07-31T14:13:34;22.90;99.90
24250;DHT22;12379;49.820;8.648;2023-07-31T14:15:59;22.80;99.90
24250;DHT22;12379;49.820;8.648;2023-07-31T14:18:25;22.80;99.90
24250;DHT22;12379;49.820;8.648;2023-07-31T14:20:51;22.80;99.90
24250;DHT22;12379;49.820;8.648;2023-07-31T14:23:17;22.80;99.90
24250;DHT22;12379;49.820;8.648;2023-07-31T14:25:42;22.90;99.90
24250;DHT22;12379;49.820;8.648;2023-07-31T14:28:09;22.90;99.90
24250;DHT22;12379;49.820;8.648;2023-07-31T14:30:34;22.90;99.90
24250;DHT22;12379;49.820;8.648;2023-07-31T14:33:00;22.80;99.90
24250;DHT22;12379;49.820;8.648;2023-07-31T14:35:27;22.70;99.90
24250;DHT22;12379;49.820;8.648;2023-07-31T14:37:53;22.70;99.90
24250;DHT22;12379;49.820;8.648;2023-07-31T14:40:18;22.70;99.90
24250;DHT22;12379;49.820;8.648;2023-07-31T14:42:44;22.70;99.90
24250;DHT22;12379;49.820;8.648;2023-07-31T14:45:10;22.70;99.90
24250;DHT22;12379;49.820;8.648;2023-07-31T14:47:36;22.70;99.90
24250;DHT22;12379;49.820;8.648;2023-07-31T14:50:02;22.70;99.90
24250;DHT22;12379;49.820;8.648;2023-07-31T14:52:28;22.60;99.90
24250;DHT22;12379;49.820;8.648;2023-07-31T14:54:54;22.60;99.90
24250;DHT22;12379;49.820;8.648;2023-07-31T14:57:19;22.70;99.90
24250;DHT22;12379;49.820;8.648;2023-07-31T15:00:06;22.70;99.90
24250;DHT22;12379;49.820;8.648;2023-07-31T15:02:50;22.60;99.90
24250;DHT22;12379;49.820;8.648;2023-07-31T15:05:15;22.70;99.90
24250;DHT22;12379;49.820;8.648;2023-07-31T15:07:41;22.60;99.90
24250;DHT22;12379;49.820;8.648;2023-07-31T15:10:07;22.60;99.90
24250;DHT22;12379;49.820;8.648;2023-07-31T15:12:32;22.60;99.90
24250;DHT22;12379;49.820;8.648;2023-07-31T15:14:58;22.70;99.90
24250;DHT22;12379;49.820;8.648;2023-07-31T15:17:24;22.70;99.90
24250;DHT22;12379;49.820;8.648;2023-07-31T15:19:49;22.60;99.90
24250;DHT22;12379;49.820;8.648;2023-07-31T15:22:15;22.50;99.90
24250;DHT22;12379;49.820;8.648;2023-07-31T15:24:40;22.60;99.90
24250;DHT22;12379;49.820;8.648;2023-07-31T15:27:06;22.60;99.90
24250;DHT22;12379;49.820;8.648;2023-07-31T15:29:33;22.60;99.90
24250;DHT22;12379;49.820;8.648;2023-07-31T15:32:03;22.70;99.90
24250;DHT22;12379;49.820;8.648;2023-07-31T15:34:29;22.70;99.90
24250;DHT22;12379;49.820;8.648;2023-07-31T15:36:54;22.80;99.90
24250;DHT22;12379;49.820;8.648;2023-07-31T15:39:20;22.90;99.90
24250;DHT22;12379;49.820;8.648;2023-07-31T15:41:45;22.80;99.90
24250;DHT22;12379;49.820;8.648;2023-07-31T15:44:11;22.70;99.90
24250;DHT22;12379;49.820;8.648;2023-07-31T15:46:36;22.70;99.90
24250;DHT22;12379;49.820;8.648;2023-07-31T15:49:02;22.60;99.90